createdAt,value
2023-01-09T00:02:10.629Z,5.40
2023-01-09T00:04:37.723Z,5.80
2023-01-09T00:07:04.775Z,4.03
2023-01-09T00:09:31.860Z,5.38
2023-01-09T00:11:58.885Z,5.78
2023-01-09T00:14:25.899Z,5.25
2023-01-09T00:16:55.281Z,5.65
2023-01-09T00:19:22.392Z,4.03
2023-01-09T00:21:49.390Z,5.20
2023-01-09T00:24:16.423Z,4.15
2023-01-09T00:26:43.408Z,4.05
2023-01-09T00:29:11.798Z,5.45
2023-01-09T00:31:38.787Z,6.55
2023-01-09T00:38:30.946Z,5.32
2023-01-09T00:40:58.600Z,6.57
2023-01-09T00:43:32.842Z,4.28
2023-01-09T00:46:01.428Z,6.15
2023-01-09T00:48:29.694Z,6.35
2023-01-09T00:50:59.720Z,4.68
2023-01-09T00:53:31.472Z,6.25
2023-01-09T00:56:01.448Z,6.50
2023-01-09T00:58:28.857Z,6.05
2023-01-09T01:00:55.930Z,7.05
2023-01-09T01:03:23.134Z,7.13
2023-01-09T01:06:08.721Z,6.65
2023-01-09T01:08:35.916Z,4.75
2023-01-09T01:11:10.253Z,6.78
2023-01-09T01:13:38.130Z,6.05
2023-01-09T01:16:07.667Z,5.47
2023-01-09T01:18:35.045Z,5.32
2023-01-09T01:21:05.486Z,5.70
2023-01-09T01:23:32.459Z,4.47
2023-01-09T01:26:08.444Z,5.35
2023-01-09T01:28:35.671Z,3.67
2023-01-09T01:31:03.085Z,4.07
2023-01-09T01:33:30.187Z,3.17
2023-01-09T01:36:08.664Z,3.90
2023-01-09T01:38:36.301Z,3.30
2023-01-09T01:41:04.377Z,3.63
2023-01-09T01:43:54.595Z,2.85
2023-01-09T01:46:22.540Z,2.55
2023-01-09T01:48:57.006Z,2.70
2023-01-09T01:51:27.259Z,2.45
2023-01-09T01:53:58.773Z,1.70
2023-01-09T02:03:18.276Z,1.90
2023-01-09T02:05:45.723Z,1.83
2023-01-09T02:08:13.001Z,1.70
2023-01-09T02:10:40.852Z,1.92
2023-01-09T02:13:09.317Z,1.60
2023-01-09T02:15:45.456Z,1.83
2023-01-09T02:18:43.634Z,1.30
2023-01-09T02:21:25.026Z,1.45
2023-01-09T02:24:10.385Z,1.77
2023-01-09T02:27:07.488Z,1.65
2023-01-09T02:30:00.259Z,0.70
2023-01-09T02:32:56.425Z,1.60
2023-01-09T02:35:43.988Z,1.83
2023-01-09T02:38:51.428Z,1.27
2023-01-09T02:41:22.257Z,1.83
2023-01-09T02:44:12.933Z,1.63
2023-01-09T02:46:39.857Z,1.70
2023-01-09T02:49:07.641Z,1.67
2023-01-09T02:51:46.840Z,1.02
2023-01-09T02:54:37.768Z,1.80
2023-01-09T02:57:44.319Z,0.98
2023-01-09T03:00:27.052Z,1.27
2023-01-09T03:02:58.245Z,1.15
2023-01-09T03:05:33.552Z,0.95
2023-01-09T03:08:16.419Z,1.25
2023-01-09T03:10:52.715Z,1.55
2023-01-09T03:13:22.566Z,1.10
2023-01-09T03:15:52.264Z,1.30
2023-01-09T03:20:50.094Z,1.23
2023-01-09T03:23:17.372Z,0.85
2023-01-09T03:25:44.349Z,1.00
2023-01-09T03:28:25.002Z,0.93
2023-01-09T03:30:52.000Z,1.08
2023-01-09T03:33:18.971Z,0.98
2023-01-09T03:35:45.984Z,0.90
2023-01-09T03:38:13.290Z,1.00
2023-01-09T03:40:43.320Z,1.00
2023-01-09T03:43:10.617Z,1.13
2023-01-09T03:45:37.661Z,1.20
2023-01-09T03:48:04.947Z,0.70
2023-01-09T03:50:32.207Z,0.98
2023-01-09T03:52:59.286Z,0.73
2023-01-09T03:55:26.318Z,1.00
2023-01-09T03:57:53.311Z,0.95
2023-01-09T04:00:21.012Z,0.90
2023-01-09T04:02:48.007Z,0.85
2023-01-09T04:09:42.444Z,0.80
2023-01-09T04:12:09.485Z,0.80
2023-01-09T04:14:36.465Z,1.10
2023-01-09T04:17:03.462Z,0.70
2023-01-09T04:19:30.499Z,0.90
2023-01-09T04:21:57.473Z,0.88
2023-01-09T04:24:24.477Z,0.57
2023-01-09T04:26:51.468Z,1.02
2023-01-09T04:29:18.541Z,0.65
2023-01-09T04:31:45.601Z,0.60
2023-01-09T04:34:12.600Z,1.00
2023-01-09T04:36:40.225Z,0.70
2023-01-09T04:39:07.302Z,0.70
2023-01-09T04:41:49.210Z,0.68
2023-01-09T04:44:21.727Z,0.80
2023-01-09T04:46:49.429Z,1.10
2023-01-09T04:49:16.508Z,0.75
2023-01-09T04:51:43.560Z,0.57
2023-01-09T04:54:11.216Z,0.70
2023-01-09T04:56:38.493Z,0.40
2023-01-09T04:59:06.896Z,0.50
2023-01-09T05:01:34.093Z,0.30
2023-01-09T05:04:01.533Z,0.43
2023-01-09T05:06:28.909Z,0.35
2023-01-09T05:08:56.803Z,0.45
2023-01-09T05:15:36.717Z,0.40
2023-01-09T05:18:03.827Z,0.52
2023-01-09T05:20:30.769Z,0.10
2023-01-09T05:22:57.746Z,0.55
2023-01-09T05:25:24.737Z,0.25
2023-01-09T05:27:51.751Z,0.30
2023-01-09T05:30:18.827Z,0.20
2023-01-09T05:32:46.059Z,0.20
2023-01-09T05:35:13.103Z,0.40
2023-01-09T05:37:40.165Z,0.50
2023-01-09T05:40:07.633Z,0.57
2023-01-09T05:42:34.727Z,0.30
2023-01-09T05:45:01.801Z,0.40
2023-01-09T05:47:28.919Z,0.30
2023-01-09T05:54:15.876Z,0.50
2023-01-09T05:56:42.951Z,0.57
2023-01-09T05:59:09.932Z,0.40
2023-01-09T06:01:36.939Z,0.82
2023-01-09T06:04:05.308Z,0.60
2023-01-09T06:06:32.316Z,0.75
2023-01-09T06:08:59.365Z,0.70
2023-01-09T06:11:26.447Z,0.80
2023-01-09T06:13:53.506Z,1.02
2023-01-09T06:16:20.725Z,0.73
2023-01-09T06:18:47.759Z,0.70
2023-01-09T06:21:15.044Z,0.73
2023-01-09T06:23:42.104Z,1.02
2023-01-09T06:26:09.078Z,0.82
2023-01-09T06:28:36.872Z,1.00
2023-01-09T06:31:03.975Z,0.77
2023-01-09T06:33:32.085Z,0.63
2023-01-09T06:35:59.051Z,0.82
2023-01-09T06:38:26.034Z,0.82
2023-01-09T06:40:52.980Z,0.85
2023-01-09T06:43:19.955Z,0.80
2023-01-09T06:45:46.852Z,1.00
2023-01-09T06:48:13.855Z,0.85
2023-01-09T06:50:41.311Z,0.80
2023-01-09T06:53:08.574Z,0.75
2023-01-09T06:55:35.553Z,0.80
2023-01-09T06:58:02.682Z,0.70
2023-01-09T07:00:31.451Z,0.82
2023-01-09T07:02:58.525Z,0.52
2023-01-09T07:05:25.529Z,0.73
2023-01-09T07:07:52.654Z,0.73
2023-01-09T07:10:19.735Z,0.82
2023-01-09T07:13:59.612Z,0.63
2023-01-09T07:16:26.662Z,0.73
2023-01-09T07:18:54.871Z,1.02
2023-01-09T07:21:21.947Z,0.80
2023-01-09T07:23:49.243Z,0.70
2023-01-09T07:26:16.350Z,0.93
2023-01-09T07:28:43.321Z,0.80
2023-01-09T07:31:10.323Z,0.90
2023-01-09T07:33:37.331Z,0.80
2023-01-09T07:36:04.468Z,0.93
2023-01-09T07:38:32.262Z,1.05
2023-01-09T07:40:59.241Z,0.90
2023-01-09T07:43:26.221Z,0.80
2023-01-09T07:45:53.235Z,0.70
2023-01-09T07:48:20.246Z,1.40
2023-01-09T07:50:47.187Z,1.10
2023-01-09T07:53:14.168Z,0.75
2023-01-09T07:55:43.065Z,0.90
2023-01-09T07:58:10.344Z,1.20
2023-01-09T08:00:37.363Z,1.48
2023-01-09T08:03:04.907Z,0.80
2023-01-09T08:05:31.976Z,0.77
2023-01-09T08:07:58.937Z,0.88
2023-01-09T08:10:25.955Z,0.32
2023-01-09T08:12:52.915Z,0.70
2023-01-09T08:15:20.005Z,0.70
2023-01-09T08:17:47.217Z,0.75
2023-01-09T08:20:16.237Z,0.80
2023-01-09T08:23:45.735Z,1.25
2023-01-09T08:26:12.791Z,0.77
2023-01-09T08:28:40.115Z,0.82
2023-01-09T08:31:07.353Z,0.80
2023-01-09T08:33:34.482Z,0.70
2023-01-09T08:36:01.752Z,1.02
2023-01-09T08:38:29.893Z,0.80
2023-01-09T08:40:56.921Z,0.70
2023-01-09T08:43:42.345Z,0.80
2023-01-09T08:46:38.678Z,0.55
2023-01-09T08:49:05.673Z,0.80
2023-01-09T08:51:32.585Z,0.50
2023-01-09T08:53:59.624Z,0.70
2023-01-09T08:56:26.614Z,1.33
2023-01-09T08:58:53.672Z,0.60
2023-01-09T09:01:22.723Z,0.70
2023-01-09T09:04:02.054Z,0.90
2023-01-09T09:09:26.146Z,0.93
2023-01-09T09:11:53.381Z,0.38
2023-01-09T09:14:38.956Z,1.00
2023-01-09T09:17:05.947Z,1.90
2023-01-09T09:19:32.951Z,1.20
2023-01-09T09:21:59.934Z,0.90
2023-01-09T09:24:26.919Z,0.40
2023-01-09T09:26:53.896Z,0.75
2023-01-09T09:29:22.912Z,1.00
2023-01-09T09:31:49.919Z,1.08
2023-01-09T09:34:17.219Z,1.30
2023-01-09T09:36:44.584Z,0.93
2023-01-09T09:39:11.646Z,0.60
2023-01-09T09:42:17.642Z,1.45
2023-01-09T09:45:02.657Z,1.23
2023-01-09T09:47:54.616Z,1.63
2023-01-09T09:50:52.371Z,1.30
2023-01-09T09:53:27.712Z,0.88
2023-01-09T09:55:57.600Z,1.45
2023-01-09T09:58:42.478Z,1.00
2023-01-09T10:01:12.876Z,1.00
2023-01-09T10:04:00.529Z,0.52
2023-01-09T10:06:32.800Z,0.85
2023-01-09T10:09:05.561Z,0.80
2023-01-09T10:12:14.633Z,1.20
2023-01-09T10:14:41.639Z,0.60
2023-01-09T10:17:45.502Z,1.15
2023-01-09T10:20:31.241Z,1.00
2023-01-09T10:23:01.173Z,1.00
2023-01-09T10:25:45.594Z,1.30
2023-01-09T10:28:25.134Z,1.13
2023-01-09T10:31:27.081Z,0.60
2023-01-09T10:34:12.795Z,1.90
2023-01-09T10:37:05.707Z,1.50
2023-01-09T10:39:58.946Z,0.80
2023-01-09T10:42:41.271Z,1.00
2023-01-09T10:45:26.340Z,0.82
2023-01-09T10:48:02.637Z,0.90
2023-01-09T10:50:37.533Z,0.77
2023-01-09T10:53:33.942Z,0.70
2023-01-09T10:56:13.326Z,1.20
2023-01-09T10:58:40.332Z,1.35
2023-01-09T11:01:09.022Z,1.10
2023-01-09T11:03:36.556Z,0.47
2023-01-09T11:06:03.898Z,1.23
2023-01-09T11:08:40.208Z,1.38
2023-01-09T11:11:07.542Z,0.90
2023-01-09T11:13:36.754Z,0.80
2023-01-09T11:16:23.667Z,0.70
2023-01-09T11:19:42.198Z,1.30
2023-01-09T11:22:18.456Z,0.50
2023-01-09T11:25:13.309Z,1.42
2023-01-09T11:28:10.528Z,0.73
2023-01-09T11:30:51.865Z,1.20
2023-01-09T11:33:27.213Z,0.80
2023-01-09T11:36:11.166Z,0.77
2023-01-09T11:39:04.718Z,0.65
2023-01-09T11:41:35.364Z,0.52
2023-01-09T11:44:04.613Z,0.65
2023-01-09T11:46:37.861Z,0.73
2023-01-09T11:49:29.233Z,1.08
2023-01-09T11:52:21.036Z,1.20
2023-01-09T11:55:04.414Z,0.90
2023-01-09T11:57:32.646Z,0.80
2023-01-09T12:00:02.734Z,0.80
2023-01-09T12:02:57.074Z,0.63
2023-01-09T12:06:35.085Z,0.68
2023-01-09T12:09:07.895Z,0.88
2023-01-09T12:11:52.625Z,0.88
2023-01-09T12:14:36.440Z,1.15
2023-01-09T12:17:13.698Z,1.00
2023-01-09T12:19:43.381Z,0.63
2023-01-09T12:25:09.136Z,1.60
2023-01-09T12:28:06.185Z,0.80
2023-01-09T12:30:53.852Z,0.52
2023-01-09T12:33:42.722Z,0.60
2023-01-09T12:36:34.926Z,0.70
2023-01-09T12:39:46.602Z,0.95
2023-01-09T12:42:25.558Z,0.82
2023-01-09T12:44:59.453Z,0.63
2023-01-09T12:47:46.141Z,1.13
2023-01-09T12:50:35.310Z,0.50
2023-01-09T12:53:40.956Z,0.35
2023-01-09T12:56:15.149Z,0.73
2023-01-09T12:59:06.112Z,1.15
2023-01-09T13:01:38.978Z,1.00
2023-01-09T13:04:49.967Z,0.57
2023-01-09T13:07:23.141Z,1.02
2023-01-09T13:10:07.656Z,0.50
2023-01-09T13:12:39.479Z,1.00
2023-01-09T13:16:03.683Z,0.55
2023-01-09T13:19:09.756Z,0.60
2023-01-09T13:21:38.716Z,1.00
2023-01-09T13:24:57.655Z,0.60
2023-01-09T13:28:26.770Z,0.90
2023-01-09T13:31:48.806Z,0.93
2023-01-09T13:34:22.483Z,0.77
2023-01-09T13:36:54.273Z,0.80
2023-01-09T13:39:25.370Z,0.90
2023-01-09T13:42:15.716Z,2.70
2023-01-09T13:44:43.190Z,0.80
2023-01-09T13:47:19.952Z,1.20
2023-01-09T13:49:46.924Z,0.70
2023-01-09T13:52:37.371Z,0.70
2023-01-09T13:55:16.620Z,0.52
2023-01-09T13:58:04.000Z,1.15
2023-01-09T14:00:37.524Z,0.75
2023-01-09T14:03:13.862Z,0.88
2023-01-09T14:06:00.862Z,1.00
2023-01-09T14:08:29.961Z,0.90
2023-01-09T14:11:02.272Z,1.27
2023-01-09T14:13:32.989Z,0.60
2023-01-09T14:16:18.082Z,1.10
2023-01-09T14:18:50.802Z,1.73
2023-01-09T14:21:18.236Z,1.27
2023-01-09T14:24:06.762Z,1.48
2023-01-09T14:26:49.759Z,1.38
2023-01-09T14:29:29.478Z,1.35
2023-01-09T14:32:26.421Z,1.20
2023-01-09T14:35:17.583Z,1.33
2023-01-09T14:37:50.248Z,1.38
2023-01-09T14:40:23.589Z,1.38
2023-01-09T14:42:55.580Z,1.23
2023-01-09T14:45:27.304Z,1.23
2023-01-09T14:48:03.760Z,1.42
2023-01-09T14:50:48.902Z,1.17
2023-01-09T14:53:31.605Z,1.48
2023-01-09T14:56:06.279Z,1.05
2023-01-09T14:58:34.827Z,2.40
2023-01-09T15:01:07.478Z,1.90
2023-01-09T15:03:51.798Z,1.58
2023-01-09T15:10:38.365Z,0.90
2023-01-09T15:13:08.005Z,1.10
2023-01-09T15:18:07.884Z,1.10
2023-01-09T15:20:35.640Z,0.80
2023-01-09T15:23:05.527Z,0.85
2023-01-09T15:25:39.918Z,0.70
2023-01-09T15:28:24.050Z,0.77
2023-01-09T15:31:04.804Z,0.80
2023-01-09T15:33:32.768Z,1.05
2023-01-09T15:36:02.238Z,0.98
2023-01-09T15:38:32.417Z,1.10
2023-01-09T15:41:01.306Z,1.13
2023-01-09T15:43:30.095Z,1.27
2023-01-09T15:45:58.247Z,1.40
2023-01-09T15:48:26.925Z,1.35
2023-01-09T15:51:13.436Z,1.30
2023-01-09T15:53:42.063Z,1.30
2023-01-09T15:56:24.243Z,1.40
2023-01-09T15:58:55.199Z,1.55
2023-01-09T16:01:25.444Z,1.10
2023-01-09T16:03:54.771Z,1.08
2023-01-09T16:06:33.577Z,1.00
2023-01-09T16:09:01.363Z,1.30
2023-01-09T16:11:38.107Z,1.25
2023-01-09T16:14:18.464Z,0.90
2023-01-09T16:16:46.921Z,1.20
2023-01-09T16:19:49.243Z,1.00
2023-01-09T16:22:23.691Z,1.40
2023-01-09T16:24:54.672Z,1.30
2023-01-09T16:27:24.283Z,0.90
2023-01-09T16:32:33.894Z,0.50
2023-01-09T16:35:14.421Z,0.50
2023-01-09T16:37:41.392Z,0.80
2023-01-09T16:40:14.295Z,0.70
2023-01-09T16:42:59.692Z,0.32
2023-01-09T16:45:38.718Z,0.70
2023-01-09T16:52:25.539Z,0.82
2023-01-09T16:54:52.599Z,0.70
2023-01-09T16:57:19.603Z,1.00
2023-01-09T16:59:46.962Z,8.60
2023-01-09T17:02:20.823Z,1.67
2023-01-09T17:04:47.904Z,0.90
2023-01-09T17:07:16.544Z,0.95
2023-01-09T17:09:44.072Z,0.90
2023-01-09T17:12:24.248Z,0.80
2023-01-09T17:14:51.277Z,0.77
2023-01-09T17:18:26.438Z,0.63
2023-01-09T17:20:58.799Z,0.75
2023-01-09T17:23:25.993Z,0.80
2023-01-09T17:26:17.533Z,0.85
2023-01-09T17:28:50.283Z,1.00
2023-01-09T17:31:18.202Z,0.80
2023-01-09T17:33:45.320Z,0.82
2023-01-09T17:36:41.449Z,0.90
2023-01-09T17:39:15.020Z,0.80
2023-01-09T17:41:42.454Z,1.30
2023-01-09T17:44:11.234Z,0.98
2023-01-09T17:46:43.019Z,1.15
2023-01-09T17:49:16.118Z,0.70
2023-01-09T17:51:43.271Z,0.90
2023-01-09T17:54:10.440Z,0.57
2023-01-09T17:56:39.440Z,0.98
2023-01-09T17:59:10.316Z,0.68
2023-01-09T18:01:37.452Z,2.10
2023-01-09T18:04:04.585Z,1.00
2023-01-09T18:06:31.635Z,1.15
2023-01-09T18:08:58.692Z,1.40
2023-01-09T18:11:25.929Z,0.80
2023-01-09T18:13:56.476Z,0.90
2023-01-09T18:16:26.472Z,1.50
2023-01-09T18:18:55.347Z,1.10
2023-01-09T18:21:24.524Z,0.90
2023-01-09T18:23:51.577Z,1.13
2023-01-09T18:26:21.034Z,1.33
2023-01-09T18:31:18.690Z,1.08
2023-01-09T18:36:13.647Z,2.05
2023-01-09T18:39:08.845Z,1.67
2023-01-09T18:41:35.846Z,1.55
2023-01-09T18:44:02.914Z,1.90
2023-01-09T18:46:32.305Z,1.58
2023-01-09T18:52:53.703Z,1.50
2023-01-09T18:55:22.035Z,1.50
2023-01-09T18:57:49.258Z,1.30
2023-01-09T19:00:16.489Z,1.40
2023-01-09T19:02:43.511Z,1.75
2023-01-09T19:05:10.552Z,1.33
2023-01-09T19:07:37.527Z,1.80
2023-01-09T19:10:04.887Z,2.05
2023-01-09T19:12:31.883Z,1.45
2023-01-09T19:14:58.913Z,1.90
2023-01-09T19:17:26.069Z,2.03
2023-01-09T19:19:53.108Z,2.03
2023-01-09T19:22:20.075Z,1.70
2023-01-09T19:24:47.059Z,2.30
2023-01-09T19:27:13.992Z,2.30
2023-01-09T19:29:40.964Z,2.60
2023-01-09T19:32:08.679Z,1.92
2023-01-09T19:34:35.784Z,2.13
2023-01-09T19:37:02.897Z,2.50
2023-01-09T19:39:29.959Z,2.60
2023-01-09T19:41:56.913Z,2.38
2023-01-09T19:44:24.281Z,2.35
2023-01-09T19:46:51.287Z,1.25
2023-01-09T19:49:18.461Z,1.35
2023-01-09T19:51:46.133Z,2.92
2023-01-09T19:54:13.222Z,2.30
2023-01-09T19:56:43.837Z,2.20
2023-01-09T19:59:12.089Z,2.22
2023-01-09T20:01:41.787Z,2.33
2023-01-09T20:04:13.907Z,1.20
2023-01-09T20:06:47.157Z,1.40
2023-01-09T20:09:18.221Z,0.77
2023-01-09T20:11:45.504Z,1.05
2023-01-09T20:14:14.804Z,0.93
2023-01-09T20:16:43.035Z,0.85
2023-01-09T20:19:12.105Z,1.05
2023-01-09T20:21:39.321Z,1.00
2023-01-09T20:24:07.022Z,1.20
2023-01-09T20:26:36.230Z,1.30
2023-01-09T20:29:04.229Z,1.30
2023-01-09T20:31:32.593Z,1.48
2023-01-09T20:34:00.255Z,1.58
2023-01-09T20:36:31.385Z,1.63
2023-01-09T20:39:00.837Z,1.50
2023-01-09T20:41:30.868Z,1.50
2023-01-09T20:44:00.216Z,1.45
2023-01-09T20:46:33.607Z,1.70
2023-01-09T20:49:03.925Z,1.85
2023-01-09T20:51:31.281Z,1.73
2023-01-09T20:53:58.600Z,2.10
2023-01-09T20:56:27.180Z,2.00
2023-01-09T20:58:54.975Z,1.95
2023-01-09T21:01:23.043Z,1.70
2023-01-09T21:03:51.316Z,1.70
2023-01-09T21:06:19.655Z,1.98
2023-01-09T21:08:51.058Z,1.88
2023-01-09T21:11:18.633Z,1.80
2023-01-09T21:13:45.656Z,1.70
2023-01-09T21:16:20.045Z,2.20
2023-01-09T21:18:48.118Z,2.42
2023-01-09T21:21:18.013Z,1.67
2023-01-09T21:23:56.400Z,2.28
2023-01-09T21:26:27.675Z,2.05
2023-01-09T21:28:56.241Z,2.28
2023-01-09T21:31:35.458Z,2.15
2023-01-09T21:34:05.033Z,2.55
2023-01-09T21:36:32.191Z,2.78
2023-01-09T21:39:00.227Z,2.70
2023-01-09T21:41:56.406Z,2.38
2023-01-09T21:44:42.160Z,2.72
2023-01-09T21:47:09.388Z,2.08
2023-01-09T21:49:41.152Z,2.25
2023-01-09T21:52:08.595Z,2.63
2023-01-09T21:54:35.754Z,2.10
2023-01-09T21:57:04.365Z,2.47
2023-01-09T21:59:33.553Z,2.60
2023-01-09T22:02:00.665Z,2.65
2023-01-09T22:04:28.877Z,2.97
2023-01-09T22:06:56.476Z,3.10
2023-01-09T22:09:23.472Z,3.10
2023-01-09T22:11:50.555Z,3.05
2023-01-09T22:14:19.174Z,2.45
2023-01-09T22:16:48.154Z,2.53
2023-01-09T22:19:19.162Z,3.63
2023-01-09T22:21:46.745Z,2.65
2023-01-09T22:24:15.533Z,2.08
2023-01-09T22:26:42.909Z,2.60
2023-01-09T22:29:09.881Z,2.22
2023-01-09T22:31:39.946Z,2.10
2023-01-09T22:34:07.713Z,2.65
2023-01-09T22:36:35.010Z,2.63
2023-01-09T22:39:02.216Z,3.00
2023-01-09T22:41:30.660Z,3.22
2023-01-09T22:43:58.425Z,3.05
2023-01-09T22:46:25.492Z,3.05
2023-01-09T22:48:52.452Z,7.63
2023-01-09T22:51:21.463Z,4.30
2023-01-09T22:53:49.043Z,3.25
2023-01-09T22:56:18.499Z,3.08
2023-01-09T22:58:49.363Z,3.15
2023-01-09T23:01:20.243Z,3.20
2023-01-09T23:03:47.647Z,3.63
2023-01-09T23:06:18.144Z,3.30
2023-01-09T23:08:46.136Z,3.80
2023-01-09T23:11:42.225Z,3.88
2023-01-09T23:14:10.164Z,2.95
2023-01-09T23:16:37.250Z,3.00
2023-01-09T23:19:08.998Z,2.95
2023-01-09T23:21:36.800Z,3.10
2023-01-09T23:24:04.008Z,3.28
2023-01-09T23:26:31.007Z,3.67
2023-01-09T23:28:57.945Z,3.38
2023-01-09T23:31:26.100Z,3.53
2023-01-09T23:33:53.290Z,3.58
2023-01-09T23:36:22.468Z,3.42
2023-01-09T23:38:49.826Z,2.42
2023-01-09T23:41:17.196Z,3.58
2023-01-09T23:43:44.756Z,2.63
2023-01-09T23:46:15.024Z,3.25
2023-01-09T23:48:42.045Z,3.05
2023-01-09T23:51:09.024Z,3.47
2023-01-09T23:53:36.045Z,3.20
2023-01-09T23:56:03.147Z,3.72
2023-01-09T23:58:34.247Z,3.20
